Time;durP1;ratioP1;P1;durP2;ratioP2;P2;SDS_P1;SDS_P2;PMS_P1;PMS_P2;Temp;Humidity;BMP_temperature;BMP_pressure;BME280_temperature;BME280_humidity;BME280_pressure;Samples;Min_cycle;Max_cycle;Signal;HPM_P1;HPM_P2
2020/12/15 00:00:08;;;;;;;2.30;1.42;;;21.40;46.00;;;;;;1509657;92;21203;-35
2020/12/15 00:02:36;;;;;;;3.42;1.70;;;21.40;46.10;;;;;;1512795;92;21203;-35
2020/12/15 00:05:06;;;;;;;2.52;1.50;;;21.40;46.00;;;;;;1471286;94;21195;-33
2020/12/15 00:07:34;;;;;;;3.58;1.82;;;21.30;45.90;;;;;;1507109;93;22454;-37
2020/12/15 00:10:01;;;;;;;2.77;1.60;;;21.30;46.00;;;;;;1505637;93;21742;-36
2020/12/15 00:12:29;;;;;;;6.30;2.15;;;21.40;46.00;;;;;;1492180;93;21384;-34
2020/12/15 00:14:57;;;;;;;2.10;1.80;;;21.30;46.00;;;;;;1506684;93;21199;-34
2020/12/15 00:17:24;;;;;;;3.17;1.87;;;21.30;46.00;;;;;;1488806;93;21402;-32
2020/12/15 00:19:52;;;;;;;2.20;1.32;;;21.30;46.00;;;;;;1507607;93;21238;-33
2020/12/15 00:22:20;;;;;;;3.27;1.67;;;21.30;46.00;;;;;;1507206;93;21779;-34
2020/12/15 00:24:47;;;;;;;6.28;1.72;;;21.30;46.00;;;;;;1479142;93;21211;-34
2020/12/15 00:27:15;;;;;;;3.62;1.70;;;21.30;46.10;;;;;;1508887;93;21228;-33
2020/12/15 00:29:43;;;;;;;2.17;1.50;;;21.30;46.10;;;;;;1510262;92;21642;-35
2020/12/15 00:32:11;;;;;;;3.25;1.77;;;21.30;46.00;;;;;;1475069;94;21744;-33
2020/12/15 00:34:38;;;;;;;2.70;1.47;;;21.30;46.00;;;;;;1507908;93;21289;-32
2020/12/15 00:37:08;;;;;;;2.85;1.52;;;21.30;46.00;;;;;;1494748;94;21211;-33
2020/12/15 00:39:35;;;;;;;3.42;1.70;;;21.30;46.10;;;;;;1508148;93;21238;-34
2020/12/15 00:42:03;;;;;;;1.95;1.70;;;21.30;46.10;;;;;;1510093;92;21214;-34
2020/12/15 00:44:31;;;;;;;2.87;1.70;;;21.20;46.00;;;;;;1506720;93;21788;-35
2020/12/15 00:46:59;;;;;;;4.22;1.50;;;21.20;46.10;;;;;;1507727;93;21804;-34
2020/12/15 00:49:26;;;;;;;2.67;1.57;;;21.30;46.20;;;;;;1505693;93;21269;-33
2020/12/15 00:51:54;;;;;;;2.25;1.30;;;21.20;46.10;;;;;;1492773;92;21254;-35
2020/12/15 00:54:22;;;;;;;3.75;1.47;;;21.20;46.10;;;;;;1505378;92;21271;-34
2020/12/15 00:56:49;;;;;;;3.42;1.45;;;21.20;46.10;;;;;;1505294;93;21844;-34
2020/12/15 00:59:17;;;;;;;1.62;1.30;;;21.20;46.00;;;;;;1490254;93;21219;-32
2020/12/15 01:01:45;;;;;;;2.45;1.60;;;21.30;46.10;;;;;;1505593;93;21183;-34
2020/12/15 01:04:12;;;;;;;2.60;1.52;;;21.20;46.10;;;;;;1507756;93;21278;-34
2020/12/15 01:06:40;;;;;;;2.87;1.45;;;21.20;46.10;;;;;;1508707;93;21446;-34
2020/12/15 01:09:08;;;;;;;1.67;1.40;;;21.20;46.10;;;;;;1509251;92;21207;-33
2020/12/15 01:11:36;;;;;;;3.25;1.72;;;21.20;46.10;;;;;;1494300;93;21222;-33
2020/12/15 01:14:03;;;;;;;3.10;1.70;;;21.20;46.20;;;;;;1509391;93;21861;-35
2020/12/15 01:16:31;;;;;;;2.45;1.52;;;21.20;46.20;;;;;;1509716;93;21202;-35
2020/12/15 01:18:58;;;;;;;2.00;1.40;;;21.20;46.20;;;;;;1507476;93;21397;-36
2020/12/15 01:21:28;;;;;;;2.15;1.37;;;21.20;46.20;;;;;;1509351;93;21697;-35
2020/12/15 01:23:56;;;;;;;3.17;1.50;;;21.20;46.10;;;;;;1492032;93;21218;-34
2020/12/15 01:26:24;;;;;;;2.70;1.22;;;21.20;46.20;;;;;;1509489;92;21404;-35
2020/12/15 01:28:52;;;;;;;2.83;1.70;;;21.20;46.20;;;;;;1506422;93;21282;-36
2020/12/15 01:31:30;;;;;;;2.40;1.50;;;21.20;46.20;;;;;;1475648;94;21226;-34
2020/12/15 01:33:58;;;;;;;2.83;1.50;;;21.20;46.20;;;;;;1511047;92;21314;-33
2020/12/15 01:36:29;;;;;;;2.83;1.50;;;21.20;46.30;;;;;;1508151;93;21239;-34
2020/12/15 01:38:57;;;;;;;6.17;1.80;;;21.20;46.20;;;;;;1507969;93;21171;-33
2020/12/15 01:41:25;;;;;;;2.60;1.52;;;21.20;46.20;;;;;;1510061;93;21187;-34
2020/12/15 01:43:57;;;;;;;2.08;1.57;;;21.10;46.20;;;;;;1493355;94;21241;-36
2020/12/15 01:46:26;;;;;;;2.25;1.30;;;21.20;46.30;;;;;;1510202;92;21203;-35
2020/12/15 01:48:55;;;;;;;1.92;1.42;;;21.10;46.30;;;;;;1509258;92;21282;-32
2020/12/15 01:51:25;;;;;;;2.70;1.60;;;21.20;46.30;;;;;;1473825;94;21663;-31
2020/12/15 01:54:00;;;;;;;1.77;1.40;;;21.10;46.20;;;;;;1509519;93;21187;-35
2020/12/15 01:56:29;;;;;;;2.67;1.60;;;21.10;46.20;;;;;;1490079;93;21204;-34
2020/12/15 01:58:58;;;;;;;3.37;1.80;;;21.10;46.20;;;;;;1487013;94;21968;-35
2020/12/15 02:01:26;;;;;;;3.27;1.72;;;21.10;46.20;;;;;;1505235;93;21251;-34
2020/12/15 02:03:54;;;;;;;2.08;1.50;;;21.10;46.20;;;;;;1472950;93;21768;-35
2020/12/15 02:06:24;;;;;;;2.22;1.30;;;21.20;46.20;;;;;;1490758;93;21247;-35
2020/12/15 02:08:52;;;;;;;6.60;1.62;;;21.10;46.20;;;;;;1492794;93;21307;-34
2020/12/15 02:11:20;;;;;;;2.77;1.57;;;21.10;46.30;;;;;;1465367;94;21660;-34
2020/12/15 02:13:47;;;;;;;1.30;1.10;;;21.10;46.20;;;;;;1505888;93;21773;-33
2020/12/15 02:16:15;;;;;;;1.30;1.20;;;21.10;46.20;;;;;;1486239;94;21289;-34
2020/12/15 02:18:43;;;;;;;1.50;1.32;;;21.10;46.20;;;;;;1493985;93;21247;-35
2020/12/15 02:21:11;;;;;;;1.85;1.22;;;21.10;46.20;;;;;;1501053;93;21195;-34
2020/12/15 02:23:38;;;;;;;2.72;1.40;;;21.10;46.20;;;;;;1494511;93;21302;-34
2020/12/15 02:26:09;;;;;;;2.05;1.55;;;21.10;46.30;;;;;;1510502;92;21184;-37
2020/12/15 02:28:37;;;;;;;2.33;1.60;;;21.10;46.30;;;;;;1502453;93;21240;-34
2020/12/15 02:31:05;;;;;;;3.50;1.55;;;21.10;46.30;;;;;;1481401;94;21187;-33
2020/12/15 02:33:32;;;;;;;3.02;1.32;;;21.10;46.30;;;;;;1500223;92;21291;-35
2020/12/15 03:32:27;;;;;;;1.57;1.05;;;21.30;46.40;;;;;;1486992;90;68179;-37
2020/12/15 03:34:55;;;;;;;2.33;1.40;;;21.30;46.40;;;;;;1491963;94;21314;-34
2020/12/15 03:37:22;;;;;;;1.35;1.00;;;21.30;46.40;;;;;;1502641;94;21211;-35
2020/12/15 03:39:50;;;;;;;1.80;1.30;;;21.30;46.40;;;;;;1484297;95;21277;-36
2020/12/15 03:42:18;;;;;;;2.20;1.37;;;21.30;46.40;;;;;;1495059;94;21234;-35
2020/12/15 03:44:46;;;;;;;1.98;1.42;;;21.30;46.40;;;;;;1496429;94;21196;-34
2020/12/15 03:47:13;;;;;;;1.30;1.10;;;21.30;46.30;;;;;;1480362;93;21352;-35
2020/12/15 03:49:41;;;;;;;1.77;1.10;;;21.30;46.20;;;;;;1493355;94;21305;-34
2020/12/15 03:52:09;;;;;;;1.80;1.27;;;21.40;46.40;;;;;;1476202;94;21211;-34
2020/12/15 03:54:36;;;;;;;1.60;1.20;;;21.40;46.40;;;;;;1493947;94;21218;-35
2020/12/15 03:57:04;;;;;;;1.72;1.20;;;21.40;46.40;;;;;;1494831;94;21380;-37
2020/12/15 03:59:31;;;;;;;2.95;1.67;;;21.40;46.40;;;;;;1477181;94;21785;-35
2020/12/15 04:02:00;;;;;;;1.75;1.12;;;21.40;46.40;;;;;;1497910;94;21237;-33
2020/12/15 04:04:28;;;;;;;1.82;1.40;;;21.30;46.90;;;;;;1489780;94;21239;-35
2020/12/15 04:06:55;;;;;;;2.37;1.50;;;21.40;46.40;;;;;;1493888;94;21254;-35
2020/12/15 04:09:23;;;;;;;1.72;1.22;;;21.40;46.40;;;;;;1489071;94;21639;-32
2020/12/15 04:11:51;;;;;;;2.50;1.80;;;21.30;46.30;;;;;;1470065;94;21231;-34
2020/12/15 04:14:18;;;;;;;1.70;1.47;;;21.30;46.40;;;;;;1483219;94;21323;-36
2020/12/15 04:16:46;;;;;;;1.92;1.10;;;21.40;46.40;;;;;;1496655;94;21561;-36
2020/12/15 04:19:13;;;;;;;1.77;1.10;;;21.30;46.30;;;;;;1497143;94;21324;-34
2020/12/15 04:21:41;;;;;;;1.67;1.17;;;21.40;46.90;;;;;;1503150;94;21669;-36
2020/12/15 04:24:09;;;;;;;2.60;1.42;;;21.40;46.30;;;;;;1457043;94;21288;-35
2020/12/15 04:26:38;;;;;;;1.98;1.30;;;21.40;46.30;;;;;;1496647;94;21738;-34
2020/12/15 04:29:05;;;;;;;1.47;1.07;;;21.40;46.30;;;;;;1490230;94;21753;-35
2020/12/15 04:31:33;;;;;;;1.37;1.05;;;21.40;46.30;;;;;;1500892;94;21268;-36
2020/12/15 04:34:01;;;;;;;1.40;1.10;;;21.40;46.30;;;;;;1488512;93;21738;-37
2020/12/15 04:36:28;;;;;;;1.67;1.27;;;21.40;46.30;;;;;;1474959;94;21238;-35
2020/12/15 04:38:56;;;;;;;1.52;1.10;;;21.40;46.30;;;;;;1475796;94;21330;-35
2020/12/15 04:41:24;;;;;;;2.70;1.15;;;21.40;46.30;;;;;;1485354;94;21257;-33
2020/12/15 04:43:53;;;;;;;1.92;1.32;;;21.40;46.30;;;;;;1457939;95;21236;-36
2020/12/15 04:46:22;;;;;;;2.95;1.35;;;21.40;46.20;;;;;;1484689;94;21239;-34
2020/12/15 04:49:08;;;;;;;2.10;1.25;;;21.40;45.90;;;;;;1487787;95;21687;-36
2020/12/15 04:51:54;;;;;;;2.12;1.22;;;21.40;46.20;;;;;;1484023;94;67459;-35
2020/12/15 04:54:24;;;;;;;2.05;1.40;;;21.40;46.20;;;;;;1504818;93;67366;-35
2020/12/15 04:56:55;;;;;;;1.27;1.17;;;21.40;46.20;;;;;;1494189;94;21378;-33
2020/12/15 04:59:25;;;;;;;2.62;1.10;;;21.40;46.20;;;;;;1492405;94;21315;-35
2020/12/15 05:01:56;;;;;;;1.47;1.12;;;21.40;46.80;;;;;;1515442;91;21369;-34
2020/12/15 05:04:26;;;;;;;1.20;1.02;;;21.40;46.20;;;;;;1472179;94;21231;-33
2020/12/15 05:06:55;;;;;;;1.30;1.15;;;21.40;46.20;;;;;;1485425;94;21746;-35
2020/12/15 05:09:31;;;;;;;1.95;1.25;;;21.40;46.20;;;;;;1484184;94;21388;-34
2020/12/15 05:11:59;;;;;;;2.00;1.20;;;21.40;46.20;;;;;;1485595;94;21262;-36
2020/12/15 05:14:27;;;;;;;2.15;1.37;;;21.40;46.20;;;;;;1489524;94;21233;-35
2020/12/15 05:16:55;;;;;;;1.25;1.15;;;21.40;46.20;;;;;;1482591;94;21346;-32
2020/12/15 05:19:23;;;;;;;1.40;1.27;;;21.40;46.20;;;;;;1491489;94;21686;-35
2020/12/15 05:21:56;;;;;;;1.52;1.25;;;21.40;46.20;;;;;;1493866;93;21382;-33
2020/12/15 05:24:28;;;;;;;2.17;1.40;;;21.40;46.20;;;;;;1487727;94;21255;-34
2020/12/15 05:26:58;;;;;;;1.20;1.10;;;21.40;46.20;;;;;;1489224;93;21277;-36
2020/12/15 05:29:25;;;;;;;2.42;1.10;;;21.40;46.20;;;;;;1444222;95;21176;-34
2020/12/15 05:31:54;;;;;;;1.95;1.20;;;21.40;46.20;;;;;;1489242;94;21271;-35
2020/12/15 05:34:27;;;;;;;1.20;1.10;;;21.40;46.20;;;;;;1484372;94;21280;-34
2020/12/15 05:36:59;;;;;;;2.08;1.42;;;21.40;46.20;;;;;;1468516;95;21235;-36
2020/12/15 05:39:28;;;;;;;2.35;1.30;;;21.40;46.20;;;;;;1474994;94;21341;-34
2020/12/15 05:42:04;;;;;;;2.08;1.32;;;21.40;46.20;;;;;;1485226;94;22780;-36
2020/12/15 05:44:36;;;;;;;1.40;1.25;;;21.40;46.20;;;;;;1487855;94;21624;-36
2020/12/15 05:47:06;;;;;;;1.77;1.00;;;21.50;46.20;;;;;;1486887;94;21211;-35
2020/12/15 05:49:36;;;;;;;2.67;1.27;;;21.50;46.80;;;;;;1500288;92;21275;-36
2020/12/15 05:52:05;;;;;;;1.62;1.07;;;21.50;46.20;;;;;;1488064;94;21777;-34
2020/12/15 05:54:32;;;;;;;2.27;1.27;;;21.40;46.20;;;;;;1486682;94;21209;-32
2020/12/15 05:57:05;;;;;;;2.17;1.40;;;21.50;46.20;;;;;;1476424;95;21784;-35
2020/12/15 05:59:34;;;;;;;4.00;1.12;;;21.50;46.20;;;;;;1478989;95;21290;-35
2020/12/15 06:02:07;;;;;;;1.80;1.30;;;21.50;46.20;;;;;;1502027;93;21173;-35
2020/12/15 06:04:37;;;;;;;2.27;1.45;;;21.50;46.30;;;;;;1476364;95;21687;-35
2020/12/15 06:07:07;;;;;;;1.82;1.20;;;21.50;46.30;;;;;;1466485;95;21656;-33
2020/12/15 06:09:36;;;;;;;2.42;1.47;;;21.50;46.30;;;;;;1430170;95;21498;-36
2020/12/15 06:12:05;;;;;;;2.80;1.32;;;21.50;46.30;;;;;;1473236;95;21250;-36
2020/12/15 06:14:33;;;;;;;2.95;1.40;;;21.50;46.30;;;;;;1462481;95;21260;-36
2020/12/15 06:17:01;;;;;;;2.77;1.50;;;21.50;46.30;;;;;;1449756;96;21284;-36
2020/12/15 06:19:30;;;;;;;2.47;1.52;;;21.50;46.30;;;;;;1459388;95;21712;-36
2020/12/15 06:22:01;;;;;;;2.15;1.20;;;21.50;46.30;;;;;;1441635;96;21232;-35
2020/12/15 06:24:40;;;;;;;2.72;1.95;;;21.50;46.30;;;;;;1466458;95;21348;-34
2020/12/15 06:27:15;;;;;;;1.77;1.30;;;21.50;46.30;;;;;;1469012;95;67642;-34
2020/12/15 06:29:40;;;;;;;3.58;1.52;;;21.50;46.30;;;;;;1478767;94;21257;-36
2020/12/15 06:32:19;;;;;;;1.87;1.20;;;21.60;46.30;;;;;;1481518;94;21231;-36
2020/12/15 06:34:48;;;;;;;2.70;1.40;;;21.60;46.20;;;;;;1464750;95;21248;-34
2020/12/15 06:37:17;;;;;;;1.92;1.50;;;21.60;46.20;;;;;;1482939;94;21283;-35
2020/12/15 06:40:00;;;;;;;4.45;1.60;;;21.60;46.10;;;;;;1483438;94;21263;-35
2020/12/15 06:42:29;;;;;;;3.27;1.37;;;21.70;46.20;;;;;;1484052;94;67965;-33
2020/12/15 06:45:07;;;;;;;1.77;1.02;;;21.70;46.10;;;;;;1481922;94;21183;-34
2020/12/15 06:47:36;;;;;;;2.22;1.20;;;21.70;46.00;;;;;;1499279;93;21287;-35
2020/12/15 06:50:15;;;;;;;2.50;1.20;;;21.70;46.00;;;;;;1487663;94;21259;-35
2020/12/15 06:52:43;;;;;;;2.40;1.32;;;21.70;45.90;;;;;;1491068;94;21239;-36
2020/12/15 06:55:11;;;;;;;2.37;1.55;;;21.80;45.90;;;;;;1475221;95;21341;-33
2020/12/15 06:57:40;;;;;;;2.47;1.35;;;21.80;45.80;;;;;;1487181;94;21717;-35
2020/12/15 07:00:10;;;;;;;3.42;1.40;;;21.80;45.80;;;;;;1482184;94;21263;-35
2020/12/15 07:02:39;;;;;;;3.00;1.40;;;21.80;45.80;;;;;;1453726;95;21720;-34
2020/12/15 07:05:20;;;;;;;1.07;0.98;;;;;;;;;;1488341;94;21288;-32
2020/12/15 07:07:53;;;;;;;2.05;1.35;;;21.80;45.70;;;;;;1449292;94;68222;-33
2020/12/15 07:10:21;;;;;;;2.20;1.37;;;;;;;;;;1470194;95;21242;-33
2020/12/15 07:12:50;;;;;;;2.95;1.30;;;21.90;45.50;;;;;;1476662;94;21862;-35
2020/12/15 07:15:18;;;;;;;2.17;1.57;;;;;;;;;;1505705;93;21249;-33
2020/12/15 07:17:48;;;;;;;2.42;1.60;;;22.00;46.10;;;;;;1467829;94;21663;-37
2020/12/15 07:20:17;;;;;;;2.92;1.45;;;22.10;45.90;;;;;;1488866;94;22473;-35
2020/12/15 07:22:45;;;;;;;3.92;1.25;;;22.10;45.80;;;;;;1483181;94;21189;-36
2020/12/15 07:25:14;;;;;;;2.20;1.37;;;22.10;46.40;;;;;;1466680;94;21191;-35
2020/12/15 07:27:43;;;;;;;1.30;1.12;;;22.20;46.00;;;;;;1482931;94;21908;-35
2020/12/15 07:30:12;;;;;;;3.45;1.60;;;;;;;;;;1501067;93;21208;-32
2020/12/15 07:32:40;;;;;;;1.47;1.17;;;22.20;45.80;;;;;;1488821;94;21630;-36
2020/12/15 07:35:22;;;;;;;1.90;1.37;;;22.30;46.30;;;;;;1489267;94;21160;-37
2020/12/15 07:37:56;;;;;;;2.67;1.60;;;22.30;45.30;;;;;;1471867;95;21311;-33
2020/12/15 07:40:21;;;;;;;9.30;1.60;;;22.30;45.50;;;;;;1482768;95;21179;-34
2020/12/15 07:42:57;;;;;;;1.55;1.40;;;22.40;45.60;;;;;;1485447;94;21231;-36
2020/12/15 07:45:26;;;;;;;3.52;1.37;;;22.50;45.40;;;;;;1458086;94;21748;-33
2020/12/15 07:47:55;;;;;;;3.70;1.25;;;22.50;45.30;;;;;;1487765;94;21220;-35
2020/12/15 07:50:30;;;;;;;2.67;1.40;;;22.50;45.30;;;;;;1504380;93;21662;-35
2020/12/15 07:53:09;;;;;;;1.92;1.10;;;22.60;45.20;;;;;;1484188;94;21215;-33
2020/12/15 07:55:37;;;;;;;1.55;1.10;;;22.60;45.40;;;;;;1483705;94;67509;-32
2020/12/15 07:58:07;;;;;;;2.95;1.70;;;22.60;45.10;;;;;;1458777;94;21234;-35
2020/12/15 08:00:36;;;;;;;1.67;1.47;;;22.60;45.20;;;;;;1481891;94;21297;-33
2020/12/15 08:03:04;;;;;;;1.47;0.90;;;22.70;45.20;;;;;;1486087;94;21211;-33
2020/12/15 08:05:32;;;;;;;1.40;1.30;;;22.70;45.30;;;;;;1467293;94;22069;-38
2020/12/15 08:08:02;;;;;;;1.40;1.27;;;22.70;45.20;;;;;;1463601;94;21590;-36
2020/12/15 08:10:33;;;;;;;1.95;1.27;;;22.70;45.70;;;;;;1480739;94;21224;-35
2020/12/15 08:13:05;;;;;;;2.47;1.60;;;22.70;45.10;;;;;;1483740;93;21262;-34
2020/12/15 08:15:38;;;;;;;2.00;1.27;;;22.70;45.20;;;;;;1481078;94;21810;-36
2020/12/15 08:18:08;;;;;;;2.05;1.20;;;22.70;45.20;;;;;;1486346;94;21243;-38
2020/12/15 08:20:37;;;;;;;2.17;1.17;;;22.70;45.20;;;;;;1483387;95;21286;-33
2020/12/15 08:23:10;;;;;;;2.58;1.60;;;22.70;45.20;;;;;;1466497;94;21282;-33
2020/12/15 08:25:44;;;;;;;2.17;1.50;;;22.70;45.20;;;;;;1468067;93;21728;-36
2020/12/15 08:28:20;;;;;;;1.95;1.32;;;22.70;45.10;;;;;;1492059;92;21251;-33
2020/12/15 08:30:44;;;;;;;2.62;1.10;;;22.80;45.10;;;;;;1487012;94;22071;-33
2020/12/15 08:33:15;;;;;;;1.95;1.35;;;22.80;45.10;;;;;;1488187;94;21260;-35
2020/12/15 08:35:44;;;;;;;1.22;0.85;;;22.80;45.20;;;;;;1487193;94;21514;-35
2020/12/15 08:38:12;;;;;;;2.05;1.27;;;22.90;45.10;;;;;;1488787;94;21880;-34
2020/12/15 08:40:42;;;;;;;1.52;1.25;;;22.80;45.10;;;;;;1486531;94;21227;-38
2020/12/15 08:43:10;;;;;;;1.12;1.02;;;22.90;45.10;;;;;;1482999;94;21518;-37
2020/12/15 08:45:37;;;;;;;6.25;1.30;;;22.90;45.10;;;;;;1472764;94;21149;-36
2020/12/15 08:48:05;;;;;;;6.05;1.20;;;;;;;;;;1494612;94;21672;-32
2020/12/15 08:50:33;;;;;;;4.30;1.15;;;22.80;45.10;;;;;;1489264;94;21583;-35
2020/12/15 08:53:07;;;;;;;2.42;1.40;;;22.80;45.10;;;;;;1471068;94;22059;-36
2020/12/15 08:55:36;;;;;;;3.33;1.42;;;22.80;45.50;;;;;;1486242;94;21231;-34
2020/12/15 08:58:06;;;;;;;1.77;1.12;;;22.80;45.70;;;;;;1456905;94;21470;-32
2020/12/15 09:00:36;;;;;;;3.58;2.05;;;22.80;45.80;;;;;;1477518;94;21250;-37
2020/12/15 09:03:11;;;;;;;5.12;1.92;;;22.80;46.30;;;;;;1490015;94;21184;-34
2020/12/15 09:05:53;;;;;;;7.08;1.50;;;22.80;45.90;;;;;;1482648;94;21685;-36
2020/12/15 09:08:23;;;;;;;1.95;1.50;;;22.90;46.10;;;;;;1484192;94;67701;-33
2020/12/15 09:10:52;;;;;;;3.42;1.52;;;22.90;46.60;;;;;;1500171;93;21164;-36
2020/12/15 09:13:20;;;;;;;6.28;1.52;;;22.90;46.00;;;;;;1483217;95;21730;-34
2020/12/15 09:15:53;;;;;;;2.67;1.77;;;22.90;46.00;;;;;;1480113;94;21476;-38
2020/12/15 09:18:35;;;;;;;3.05;1.62;;;22.90;45.90;;;;;;1461616;94;21204;-36
2020/12/15 09:21:14;;;;;;;1.65;1.10;;;22.90;45.90;;;;;;1477494;95;67952;-34
2020/12/15 09:23:46;;;;;;;7.20;1.55;;;22.90;45.80;;;;;;1469178;95;21253;-35
2020/12/15 09:26:14;;;;;;;3.15;1.62;;;23.00;45.90;;;;;;1488210;94;21294;-35
2020/12/15 09:28:42;;;;;;;1.70;1.30;;;23.00;45.90;;;;;;1486378;94;21235;-36
2020/12/15 09:31:12;;;;;;;2.58;1.57;;;23.00;45.70;;;;;;1452076;94;21303;-36
2020/12/15 09:33:40;;;;;;;6.40;1.40;;;23.00;45.70;;;;;;1483311;94;21841;-37
2020/12/15 09:36:07;;;;;;;3.08;1.75;;;23.00;45.70;;;;;;1465999;95;21229;-35
2020/12/15 09:38:35;;;;;;;2.42;1.80;;;23.00;46.20;;;;;;1420389;98;21703;-38
2020/12/15 09:41:03;;;;;;;1.98;1.52;;;23.10;45.80;;;;;;1437648;97;21246;-34
2020/12/15 09:43:31;;;;;;;3.17;1.90;;;23.00;45.70;;;;;;1430431;96;21309;-36
2020/12/15 09:45:58;;;;;;;2.37;1.37;;;23.00;45.70;;;;;;1466099;95;21692;-36
2020/12/15 09:48:26;;;;;;;2.22;1.40;;;23.00;45.70;;;;;;1478039;95;21277;-35
2020/12/15 09:50:55;;;;;;;2.15;1.72;;;23.10;45.70;;;;;;1461852;96;21243;-36
2020/12/15 09:53:23;;;;;;;1.80;1.35;;;23.10;45.60;;;;;;1449669;96;21275;-32
2020/12/15 09:55:51;;;;;;;2.10;1.57;;;23.10;45.10;;;;;;1453197;96;21300;-34
2020/12/15 09:58:18;;;;;;;2.98;1.35;;;23.10;45.80;;;;;;1447464;95;21249;-34
2020/12/15 10:00:46;;;;;;;2.42;1.47;;;23.10;46.00;;;;;;1457123;95;21215;-34
2020/12/15 10:03:15;;;;;;;5.40;1.70;;;23.10;45.70;;;;;;1452396;96;21305;-35
2020/12/15 10:05:43;;;;;;;1.85;1.60;;;23.10;45.60;;;;;;1461481;95;21229;-36
2020/12/15 10:08:10;;;;;;;2.12;1.50;;;23.10;45.60;;;;;;1474769;94;21184;-34
2020/12/15 10:10:40;;;;;;;1.77;1.30;;;23.10;45.60;;;;;;1475382;95;22277;-36
2020/12/15 10:13:08;;;;;;;1.92;1.60;;;23.10;45.80;;;;;;1481072;95;21229;-33
2020/12/15 10:15:36;;;;;;;3.58;1.47;;;23.10;46.60;;;;;;1448569;94;21846;-32
2020/12/15 10:18:04;;;;;;;2.83;2.00;;;23.10;45.60;;;;;;1479074;95;21253;-34
2020/12/15 10:20:32;;;;;;;2.20;1.60;;;23.10;45.80;;;;;;1474095;95;21288;-34
2020/12/15 10:22:59;;;;;;;2.85;1.85;;;23.10;45.60;;;;;;1467010;95;21280;-35
2020/12/15 10:25:27;;;;;;;1.30;1.20;;;23.10;45.50;;;;;;1468067;95;21410;-34
2020/12/15 10:27:55;;;;;;;4.83;1.42;;;23.10;45.60;;;;;;1463998;95;22023;-34
2020/12/15 10:30:22;;;;;;;1.72;1.30;;;23.10;45.60;;;;;;1442261;96;21161;-35
2020/12/15 10:32:50;;;;;;;1.47;1.20;;;23.10;45.60;;;;;;1458288;96;21319;-33
2020/12/15 10:35:18;;;;;;;1.67;1.40;;;23.10;45.70;;;;;;1447423;96;21321;-34
2020/12/15 10:37:45;;;;;;;2.30;1.60;;;23.10;46.30;;;;;;1474295;95;22174;-35
2020/12/15 10:40:13;;;;;;;5.45;1.65;;;23.10;45.60;;;;;;1460043;95;21221;-35
2020/12/15 10:42:40;;;;;;;1.60;1.30;;;23.10;45.70;;;;;;1463637;95;21208;-36
2020/12/15 10:45:08;;;;;;;5.45;1.70;;;23.10;45.60;;;;;;1477362;94;21267;-36
2020/12/15 10:47:36;;;;;;;2.25;1.40;;;23.10;45.70;;;;;;1472638;94;21245;-35
2020/12/15 10:50:04;;;;;;;1.82;1.40;;;23.10;45.60;;;;;;1455093;95;21851;-36
2020/12/15 10:52:31;;;;;;;1.70;1.60;;;23.10;45.60;;;;;;1480445;95;21293;-35
2020/12/15 10:55:00;;;;;;;3.05;1.80;;;23.10;45.60;;;;;;1458656;95;21255;-35
2020/12/15 10:57:28;;;;;;;24.07;2.33;;;23.00;45.70;;;;;;1482266;95;22456;-35
2020/12/15 10:59:55;;;;;;;1.82;1.40;;;23.00;46.70;;;;;;1480580;95;21302;-33
2020/12/15 11:02:23;;;;;;;7.37;2.15;;;23.00;45.80;;;;;;1452828;96;21216;-31
2020/12/15 11:04:51;;;;;;;6.37;2.10;;;23.00;45.80;;;;;;1475745;95;21312;-34
2020/12/15 11:07:19;;;;;;;1.40;1.15;;;23.00;45.90;;;;;;1478937;95;21767;-35
2020/12/15 11:09:47;;;;;;;1.98;1.55;;;23.00;45.90;;;;;;1487016;95;21343;-34
2020/12/15 11:12:15;;;;;;;2.58;1.60;;;23.00;45.80;;;;;;1479188;95;21228;-35
2020/12/15 11:14:42;;;;;;;2.10;1.60;;;23.10;45.80;;;;;;1477236;93;21368;-38
2020/12/15 11:17:10;;;;;;;5.03;1.40;;;23.10;45.60;;;;;;1484462;93;21186;-36
2020/12/15 11:19:38;;;;;;;2.47;1.42;;;23.00;45.60;;;;;;1483417;94;21661;-35
2020/12/15 11:22:06;;;;;;;11.38;1.77;;;23.00;45.80;;;;;;1483822;93;21260;-37
2020/12/15 11:24:36;;;;;;;2.80;1.40;;;23.00;45.70;;;;;;1477537;94;21349;-35
2020/12/15 11:27:04;;;;;;;2.85;1.50;;;23.00;45.60;;;;;;1459938;95;21263;-36
2020/12/15 11:29:32;;;;;;;1.80;1.30;;;23.00;45.60;;;;;;1476909;95;21587;-36
2020/12/15 11:32:00;;;;;;;1.70;1.37;;;23.00;45.60;;;;;;1482113;95;22443;-35
2020/12/15 11:34:28;;;;;;;1.92;1.45;;;23.00;45.60;;;;;;1478351;95;21251;-35
2020/12/15 11:36:56;;;;;;;2.22;1.40;;;23.10;46.20;;;;;;1482772;94;21840;-37
2020/12/15 11:39:24;;;;;;;4.45;1.50;;;23.10;45.70;;;;;;1475975;94;22594;-37
2020/12/15 11:41:52;;;;;;;6.33;1.70;;;23.00;45.90;;;;;;1496080;94;21311;-36
2020/12/15 11:44:20;;;;;;;4.53;2.37;;;23.00;46.10;;;;;;1493823;94;21201;-35
2020/12/15 11:46:48;;;;;;;6.28;1.75;;;23.00;46.20;;;;;;1455868;95;21359;-36
2020/12/15 11:49:16;;;;;;;5.60;2.08;;;23.00;46.40;;;;;;1493459;94;21934;-36
2020/12/15 11:51:43;;;;;;;7.53;2.30;;;23.00;46.60;;;;;;1494859;95;21230;-35
2020/12/15 11:54:12;;;;;;;5.45;2.35;;;23.00;46.60;;;;;;1491932;94;21242;-35
2020/12/15 11:56:40;;;;;;;12.55;2.60;;;23.00;46.90;;;;;;1494080;93;21278;-33
2020/12/15 11:59:07;;;;;;;6.28;2.02;;;23.00;46.90;;;;;;1494564;94;21332;-35
2020/12/15 12:01:35;;;;;;;7.08;2.27;;;23.00;47.10;;;;;;1478299;94;22133;-35
2020/12/15 12:04:02;;;;;;;4.30;1.92;;;23.10;47.30;;;;;;1495054;94;21195;-35
2020/12/15 12:06:34;;;;;;;6.72;2.25;;;23.00;47.50;;;;;;1463130;94;21302;-33
2020/12/15 12:09:05;;;;;;;5.60;1.82;;;23.00;48.00;;;;;;1495467;94;21298;-35
2020/12/15 12:11:32;;;;;;;6.00;2.35;;;23.00;47.40;;;;;;1478213;94;21298;-34
2020/12/15 12:14:00;;;;;;;8.28;1.62;;;23.00;47.30;;;;;;1459161;94;21386;-35
2020/12/15 12:16:28;;;;;;;7.72;2.15;;;23.00;47.50;;;;;;1494077;94;21203;-35
2020/12/15 12:18:55;;;;;;;5.03;2.00;;;23.10;47.40;;;;;;1474848;94;21250;-35
2020/12/15 12:21:24;;;;;;;5.65;2.17;;;23.00;47.70;;;;;;1478334;94;21410;-34
2020/12/15 12:23:52;;;;;;;6.67;2.15;;;23.00;47.80;;;;;;1494345;94;21238;-35
2020/12/15 12:26:19;;;;;;;7.70;2.62;;;23.00;47.90;;;;;;1477879;94;21195;-34
2020/12/15 12:28:47;;;;;;;4.95;2.08;;;23.00;48.50;;;;;;1493898;94;21192;-36
2020/12/15 12:31:15;;;;;;;6.40;2.05;;;23.00;48.40;;;;;;1493624;94;21219;-36
2020/12/15 12:33:42;;;;;;;8.75;2.67;;;23.00;48.50;;;;;;1477579;94;21310;-34
2020/12/15 12:36:10;;;;;;;6.40;2.27;;;23.00;48.20;;;;;;1493608;94;21475;-35
2020/12/15 12:38:38;;;;;;;4.65;2.15;;;23.00;48.30;;;;;;1474598;94;21210;-35
2020/12/15 12:41:05;;;;;;;8.58;2.30;;;23.00;48.40;;;;;;1471125;94;21697;-32
2020/12/15 12:43:33;;;;;;;4.83;2.00;;;23.10;48.40;;;;;;1491617;94;21376;-35
2020/12/15 12:46:00;;;;;;;6.08;2.17;;;23.00;48.30;;;;;;1461292;94;21214;-35
2020/12/15 12:48:28;;;;;;;4.70;1.95;;;23.00;48.20;;;;;;1490954;94;21768;-33
2020/12/15 12:50:56;;;;;;;6.35;2.50;;;23.10;48.20;;;;;;1486752;94;21215;-35
2020/12/15 12:53:23;;;;;;;6.28;2.20;;;23.10;48.20;;;;;;1472521;95;21312;-35
2020/12/15 12:55:51;;;;;;;10.32;2.22;;;23.10;48.20;;;;;;1457412;95;21291;-36
2020/12/15 12:58:19;;;;;;;4.03;2.12;;;23.10;48.10;;;;;;1473913;95;21219;-35
2020/12/15 13:00:46;;;;;;;5.90;2.22;;;23.10;48.10;;;;;;1474268;94;21709;-35
2020/12/15 13:03:14;;;;;;;4.78;1.75;;;23.10;48.00;;;;;;1490588;94;21360;-33
2020/12/15 13:05:43;;;;;;;4.58;1.98;;;23.10;48.10;;;;;;1475563;95;21234;-33
2020/12/15 13:08:11;;;;;;;7.22;2.15;;;23.10;48.00;;;;;;1482599;94;21257;-32
2020/12/15 13:10:39;;;;;;;3.55;1.92;;;23.10;48.00;;;;;;1494201;94;22039;-34
2020/12/15 13:13:06;;;;;;;7.00;1.82;;;23.10;47.90;;;;;;1453313;97;21315;-35
2020/12/15 13:15:34;;;;;;;3.62;1.72;;;23.10;47.90;;;;;;1491830;94;21249;-34
2020/12/15 13:18:02;;;;;;;8.08;1.92;;;23.10;47.90;;;;;;1480374;94;21186;-33
2020/12/15 13:20:29;;;;;;;5.17;1.95;;;23.10;47.90;;;;;;1482651;94;21605;-37
2020/12/15 13:22:57;;;;;;;3.70;1.57;;;23.10;47.60;;;;;;1493275;94;21513;-33
2020/12/15 13:25:24;;;;;;;5.35;1.92;;;23.10;47.60;;;;;;1454336;95;22582;-33
2020/12/15 13:27:52;;;;;;;3.52;1.70;;;23.10;47.60;;;;;;1485223;94;21217;-36
2020/12/15 13:30:20;;;;;;;3.37;1.52;;;23.10;47.50;;;;;;1488966;94;21792;-36
2020/12/15 13:32:47;;;;;;;6.70;1.90;;;23.10;47.60;;;;;;1465557;95;21408;-35
2020/12/15 13:35:15;;;;;;;4.50;1.60;;;23.10;47.80;;;;;;1485550;94;21282;-37
2020/12/15 13:37:43;;;;;;;4.30;1.72;;;23.10;47.70;;;;;;1468396;95;22829;-37
2020/12/15 13:40:10;;;;;;;5.33;2.12;;;23.10;47.80;;;;;;1466153;95;21243;-37
2020/12/15 13:42:39;;;;;;;6.10;1.87;;;23.10;47.70;;;;;;1475328;95;21361;-33
2020/12/15 13:45:07;;;;;;;3.58;1.65;;;23.10;47.70;;;;;;1475425;95;21748;-35
2020/12/15 13:47:35;;;;;;;4.85;1.60;;;23.10;47.60;;;;;;1478437;95;21219;-35
2020/12/15 13:50:04;;;;;;;4.80;1.95;;;23.10;47.70;;;;;;1475970;95;21863;-33
2020/12/15 13:52:32;;;;;;;4.08;1.95;;;23.10;47.60;;;;;;1450822;95;21286;-38